Aviation Digital Data Service (ADDS)

Output produced by METARs form (0344 UTC 23 November 2017)
found at http://www.aviationweather.gov/adds/metars/
 
EIME 230300Z 22016KT 9999 FEW018 03/02 Q0984
TAF EIME 230200Z 2303/2312 23016KT 9999 FEW015 SCT030 
     BECMG 2303/2305 21020G32KT 
     TEMPO 2304/2308 22025G40KT SCT020CB 
     BECMG 2307/2310 27015KT
       
TAF EIKN 222300Z 2300/2324 22010KT SCT012 BKN020 
     BECMG 2302/2305 28016KT 
     TEMPO 2303/2306 30018G30KT 5000 SHRAGS BKN010 SCT018CB 
     BECMG 2306/2309 30012KT 
     TEMPO 2306/2318 FEW018CB
       
EICK 230330Z 23013KT 9999 FEW016 03/02 Q0988 NOSIG
TAF EICK 222300Z 2300/2324 27010KT 9999 FEW010 SCT030 
     BECMG 2303/2306 24020G30KT 
     TEMPO 2304/2307 -SHRA 25025G35KT SCT018CB 
     BECMG 2308/2311 32008KT 
     TEMPO 2318/2324 VRB03KT
       
EIDW 230330Z 23016KT 9999 FEW020 03/01 Q0984 NOSIG
TAF EIDW 222300Z 2300/2324 27015KT 9999 FEW015 SCT025 
     BECMG 2302/2305 23022G35KT 
     PROB30 
     TEMPO 2306/2309 5000 SHRA BKN012 SCT018CB 
     BECMG 2308/2311 26020G30KT 
     BECMG 2313/2316 27015KT
       
EINN 230330Z 24021KT 9999 FEW018CB BKN050 07/01 Q0985 NOSIG
TAF EINN 222300Z 2300/2324 24013KT 9999 FEW012 BKN020 
     BECMG 2301/2303 24022G34KT 
     TEMPO 2302/2306 5000 SHRA BKN012 SCT020CB 
     BECMG 2305/2308 30010KT 
     BECMG 2317/2320 VRB03KT
       
TAF EISG 230200Z 2303/2312 20015KT 9999 SCT018 BKN030 
     TEMPO 2303/2312 5000 SHRA SCT010 SCT020CB 
     BECMG 2304/2306 34017G28KT 
     PROB40 
     TEMPO 2306/2312 34027G40KT
       
TAF EIWF 230200Z 2303/2312 27013KT 9999 SCT030 
     BECMG 2303/2305 24025G35KT 
     PROB40 
     TEMPO 2304/2308 24030G45KT